Sussex, NJ

11:48 AM EST on December 29, 2014 (GMT -0500)
Wantage, New Jersey | Change Station
CLOSE
Current Station
Personal Weather Station
Location: Wantage, NJ
Elevation: 607 ft
Nearby Weather Stations

Elev 607 ft 41.25 °N, 74.58 °W | Updated 2 minutes ago

Partly Cloudy
Partly Cloudy
38.1 °F
Feels Like 33 °F
N
7.0
Wind Variable Wind from NW
Gusts 17.0 mph

Today
High -- | Low -- °F
--% Chance of Precip.
Yesterday
High -- | Low -- °F
Precip. -- in
7:23 AM 4:37 PM
First Quarter, 60% visible
Pressure 30.19 in
Visibility 10.0 miles
Clouds Clear
Windchill 33 °F
Dew Point 23 °F
Humidity 53%
Rainfall 0.00 in
Snow Depth Not available.
UV 2 out of 12
Pollen .10 out of 12
Air Quality Not available.
Flu Activity Not available.
METAR KFWN 291553Z AUTO 34007KT 300V010 10SM CLR 03/M06 A3018 RMK AO2 SLP222 T00331056

More Conditions Fewer Conditions

Pressure 30.19 in
Visibility 10.0 miles
Clouds Clear
Windchill 33 °F
Dew Point 23 °F
Humidity 53%
Rainfall 0.00 in
Snow Depth Not available.
UV 2 out of 12
Pollen .10 out of 12
Air Quality Not available.
Flu Activity Not available.
METAR KFWN 291553Z AUTO 34007KT 300V010 10SM CLR 03/M06 A3018 RMK AO2 SLP222 T00331056

More Conditions Fewer Conditions

10-Day Weather Forecast

Almanac

Astronomy

Dec. 29, 2014 Rise Set
Actual Time
Civil Twilight
Nautical Twilight
Astronomical Twilight
Moon
Length of Visible Light
Length of Day
Tomorrow will be .
, % of the Moon is Illuminated

Today's Extremes

State Highs State Lows

Community

WunderPhotos

Upload Photos

1,781,648 photos uploaded!

WunderBlogs® & News

Nearby

Air Quality

  Air Quality AQ Index Pollutant
Not available.

Snow Depth

Station Depth Elevation

Earthquake Activity

City Distance Mag. Time & Date
Minimum magnitude displayed is 2.5.

Coastal Water Temperatures

Place Temperature

Nearby Weather Stations